sensor_id;sensor_type;location;lat;lon;timestamp;P1;durP1;ratioP1;P2;durP2;ratioP2
76447;SDS011;65284;51.040;13.722;2024-01-15T00:01:30;12.20;;;4.53;;
76447;SDS011;65284;51.040;13.722;2024-01-15T00:03:56;10.60;;;4.30;;
76447;SDS011;65284;51.040;13.722;2024-01-15T00:06:23;13.38;;;5.47;;
76447;SDS011;65284;51.040;13.722;2024-01-15T00:08:50;11.20;;;4.35;;
76447;SDS011;65284;51.040;13.722;2024-01-15T00:11:16;13.55;;;5.18;;
76447;SDS011;65284;51.040;13.722;2024-01-15T00:13:43;10.55;;;4.28;;
76447;SDS011;65284;51.040;13.722;2024-01-15T00:16:10;12.48;;;5.15;;
76447;SDS011;65284;51.040;13.722;2024-01-15T00:18:36;12.80;;;4.93;;
76447;SDS011;65284;51.040;13.722;2024-01-15T00:21:03;13.45;;;5.03;;
76447;SDS011;65284;51.040;13.722;2024-01-15T00:23:30;13.30;;;4.95;;
76447;SDS011;65284;51.040;13.722;2024-01-15T00:25:56;12.45;;;4.88;;
76447;SDS011;65284;51.040;13.722;2024-01-15T00:28:23;12.68;;;4.78;;
76447;SDS011;65284;51.040;13.722;2024-01-15T00:30:49;13.18;;;5.22;;
76447;SDS011;65284;51.040;13.722;2024-01-15T00:33:16;14.88;;;5.47;;
76447;SDS011;65284;51.040;13.722;2024-01-15T00:35:43;11.85;;;4.75;;
76447;SDS011;65284;51.040;13.722;2024-01-15T00:38:09;13.35;;;4.75;;
76447;SDS011;65284;51.040;13.722;2024-01-15T00:40:35;11.07;;;4.65;;
76447;SDS011;65284;51.040;13.722;2024-01-15T00:43:02;11.43;;;4.75;;
76447;SDS011;65284;51.040;13.722;2024-01-15T00:45:28;11.45;;;4.45;;
76447;SDS011;65284;51.040;13.722;2024-01-15T00:47:55;11.80;;;5.28;;
76447;SDS011;65284;51.040;13.722;2024-01-15T00:50:23;13.95;;;5.10;;
76447;SDS011;65284;51.040;13.722;2024-01-15T00:52:49;12.85;;;5.20;;
76447;SDS011;65284;51.040;13.722;2024-01-15T00:55:15;12.05;;;4.75;;
76447;SDS011;65284;51.040;13.722;2024-01-15T00:57:42;13.00;;;5.25;;
76447;SDS011;65284;51.040;13.722;2024-01-15T01:00:08;13.63;;;5.70;;
76447;SDS011;65284;51.040;13.722;2024-01-15T01:02:35;13.55;;;5.05;;
76447;SDS011;65284;51.040;13.722;2024-01-15T01:05:02;11.93;;;5.22;;
76447;SDS011;65284;51.040;13.722;2024-01-15T01:07:29;12.48;;;5.07;;
76447;SDS011;65284;51.040;13.722;2024-01-15T01:09:56;12.30;;;5.13;;
76447;SDS011;65284;51.040;13.722;2024-01-15T01:12:22;13.73;;;5.30;;
76447;SDS011;65284;51.040;13.722;2024-01-15T01:14:49;12.60;;;4.88;;
76447;SDS011;65284;51.040;13.722;2024-01-15T01:17:15;13.07;;;5.20;;
76447;SDS011;65284;51.040;13.722;2024-01-15T01:19:42;12.90;;;5.50;;
76447;SDS011;65284;51.040;13.722;2024-01-15T01:22:08;12.07;;;4.60;;
76447;SDS011;65284;51.040;13.722;2024-01-15T01:24:35;11.73;;;4.28;;
76447;SDS011;65284;51.040;13.722;2024-01-15T01:27:02;11.43;;;4.85;;
76447;SDS011;65284;51.040;13.722;2024-01-15T01:29:28;15.10;;;5.40;;
76447;SDS011;65284;51.040;13.722;2024-01-15T01:31:54;12.90;;;5.28;;
76447;SDS011;65284;51.040;13.722;2024-01-15T01:34:22;13.40;;;5.18;;
76447;SDS011;65284;51.040;13.722;2024-01-15T01:36:49;15.77;;;5.57;;
76447;SDS011;65284;51.040;13.722;2024-01-15T01:39:16;13.13;;;5.13;;
76447;SDS011;65284;51.040;13.722;2024-01-15T01:41:42;14.13;;;5.38;;
76447;SDS011;65284;51.040;13.722;2024-01-15T01:44:09;11.75;;;4.93;;
76447;SDS011;65284;51.040;13.722;2024-01-15T01:46:35;14.13;;;5.20;;
76447;SDS011;65284;51.040;13.722;2024-01-15T01:49:06;13.38;;;5.43;;
76447;SDS011;65284;51.040;13.722;2024-01-15T01:51:35;13.32;;;5.07;;
76447;SDS011;65284;51.040;13.722;2024-01-15T01:54:04;15.40;;;5.30;;
76447;SDS011;65284;51.040;13.722;2024-01-15T01:56:31;15.27;;;5.60;;
76447;SDS011;65284;51.040;13.722;2024-01-15T01:58:58;12.85;;;4.78;;
76447;SDS011;65284;51.040;13.722;2024-01-15T02:01:24;15.05;;;6.00;;
76447;SDS011;65284;51.040;13.722;2024-01-15T02:03:51;15.32;;;5.97;;
76447;SDS011;65284;51.040;13.722;2024-01-15T02:06:18;12.43;;;5.10;;
76447;SDS011;65284;51.040;13.722;2024-01-15T02:08:45;13.32;;;5.53;;
76447;SDS011;65284;51.040;13.722;2024-01-15T02:11:11;15.20;;;5.30;;
76447;SDS011;65284;51.040;13.722;2024-01-15T02:13:38;14.68;;;5.43;;
76447;SDS011;65284;51.040;13.722;2024-01-15T02:16:05;14.43;;;5.60;;
76447;SDS011;65284;51.040;13.722;2024-01-15T02:18:44;12.85;;;5.03;;
76447;SDS011;65284;51.040;13.722;2024-01-15T02:21:13;14.65;;;5.88;;
76447;SDS011;65284;51.040;13.722;2024-01-15T02:23:39;15.55;;;5.72;;
76447;SDS011;65284;51.040;13.722;2024-01-15T02:26:06;12.75;;;5.03;;
76447;SDS011;65284;51.040;13.722;2024-01-15T02:28:34;14.07;;;5.93;;
76447;SDS011;65284;51.040;13.722;2024-01-15T02:31:00;14.82;;;5.57;;
76447;SDS011;65284;51.040;13.722;2024-01-15T02:33:27;13.63;;;5.90;;
76447;SDS011;65284;51.040;13.722;2024-01-15T02:35:53;14.80;;;5.57;;
76447;SDS011;65284;51.040;13.722;2024-01-15T02:38:20;14.18;;;5.88;;
76447;SDS011;65284;51.040;13.722;2024-01-15T02:40:46;13.57;;;5.20;;
76447;SDS011;65284;51.040;13.722;2024-01-15T02:43:13;13.65;;;5.50;;
76447;SDS011;65284;51.040;13.722;2024-01-15T02:45:40;12.77;;;5.40;;
76447;SDS011;65284;51.040;13.722;2024-01-15T02:48:06;13.05;;;5.90;;
76447;SDS011;65284;51.040;13.722;2024-01-15T02:50:33;16.95;;;5.60;;
76447;SDS011;65284;51.040;13.722;2024-01-15T02:52:59;14.45;;;5.82;;
76447;SDS011;65284;51.040;13.722;2024-01-15T02:55:26;13.93;;;5.88;;
76447;SDS011;65284;51.040;13.722;2024-01-15T02:57:55;15.35;;;6.75;;
76447;SDS011;65284;51.040;13.722;2024-01-15T03:00:21;14.55;;;5.68;;
76447;SDS011;65284;51.040;13.722;2024-01-15T03:02:49;14.82;;;5.68;;
76447;SDS011;65284;51.040;13.722;2024-01-15T03:05:17;17.38;;;6.05;;
76447;SDS011;65284;51.040;13.722;2024-01-15T03:07:44;15.75;;;6.03;;
76447;SDS011;65284;51.040;13.722;2024-01-15T03:10:10;10.43;;;4.22;;
76447;SDS011;65284;51.040;13.722;2024-01-15T03:12:36;16.17;;;6.45;;
76447;SDS011;65284;51.040;13.722;2024-01-15T03:15:03;15.98;;;5.65;;
76447;SDS011;65284;51.040;13.722;2024-01-15T03:17:30;15.13;;;6.13;;
76447;SDS011;65284;51.040;13.722;2024-01-15T03:19:56;17.08;;;6.38;;
76447;SDS011;65284;51.040;13.722;2024-01-15T03:22:23;18.23;;;6.55;;
76447;SDS011;65284;51.040;13.722;2024-01-15T03:24:49;16.35;;;6.35;;
76447;SDS011;65284;51.040;13.722;2024-01-15T03:27:16;17.48;;;6.15;;
76447;SDS011;65284;51.040;13.722;2024-01-15T03:29:42;16.67;;;6.50;;
76447;SDS011;65284;51.040;13.722;2024-01-15T03:32:09;18.38;;;6.75;;
76447;SDS011;65284;51.040;13.722;2024-01-15T03:34:36;16.95;;;6.88;;
76447;SDS011;65284;51.040;13.722;2024-01-15T03:37:02;15.48;;;5.80;;
76447;SDS011;65284;51.040;13.722;2024-01-15T03:39:29;19.17;;;7.20;;
76447;SDS011;65284;51.040;13.722;2024-01-15T03:41:56;17.52;;;6.63;;
76447;SDS011;65284;51.040;13.722;2024-01-15T03:44:23;16.17;;;6.30;;
76447;SDS011;65284;51.040;13.722;2024-01-15T03:46:49;17.67;;;7.15;;
76447;SDS011;65284;51.040;13.722;2024-01-15T03:49:16;19.15;;;7.32;;
76447;SDS011;65284;51.040;13.722;2024-01-15T03:51:43;18.38;;;6.47;;
76447;SDS011;65284;51.040;13.722;2024-01-15T03:54:09;19.13;;;7.13;;
76447;SDS011;65284;51.040;13.722;2024-01-15T03:56:36;16.63;;;6.50;;
76447;SDS011;65284;51.040;13.722;2024-01-15T03:59:02;19.05;;;7.13;;
76447;SDS011;65284;51.040;13.722;2024-01-15T04:01:29;21.38;;;8.00;;
76447;SDS011;65284;51.040;13.722;2024-01-15T04:03:55;19.85;;;7.05;;
76447;SDS011;65284;51.040;13.722;2024-01-15T04:06:22;17.88;;;6.72;;
76447;SDS011;65284;51.040;13.722;2024-01-15T04:08:49;16.70;;;6.50;;
76447;SDS011;65284;51.040;13.722;2024-01-15T04:11:15;22.73;;;7.65;;
76447;SDS011;65284;51.040;13.722;2024-01-15T04:13:42;15.05;;;6.00;;
76447;SDS011;65284;51.040;13.722;2024-01-15T04:16:08;15.02;;;6.28;;
76447;SDS011;65284;51.040;13.722;2024-01-15T04:18:35;18.45;;;7.10;;
76447;SDS011;65284;51.040;13.722;2024-01-15T04:21:03;18.30;;;7.18;;
76447;SDS011;65284;51.040;13.722;2024-01-15T04:23:31;20.95;;;7.18;;
76447;SDS011;65284;51.040;13.722;2024-01-15T04:25:57;16.75;;;6.53;;
76447;SDS011;65284;51.040;13.722;2024-01-15T04:28:24;15.57;;;6.32;;
76447;SDS011;65284;51.040;13.722;2024-01-15T04:30:50;18.55;;;6.28;;
76447;SDS011;65284;51.040;13.722;2024-01-15T04:33:17;15.32;;;5.97;;
76447;SDS011;65284;51.040;13.722;2024-01-15T04:35:43;17.38;;;7.28;;
76447;SDS011;65284;51.040;13.722;2024-01-15T04:38:10;18.70;;;6.15;;
76447;SDS011;65284;51.040;13.722;2024-01-15T04:40:36;18.38;;;7.15;;
76447;SDS011;65284;51.040;13.722;2024-01-15T04:43:03;18.02;;;6.53;;
76447;SDS011;65284;51.040;13.722;2024-01-15T04:45:29;18.40;;;6.22;;
76447;SDS011;65284;51.040;13.722;2024-01-15T04:47:56;16.83;;;6.35;;
76447;SDS011;65284;51.040;13.722;2024-01-15T04:50:24;17.25;;;6.55;;
76447;SDS011;65284;51.040;13.722;2024-01-15T04:52:50;16.73;;;6.05;;
76447;SDS011;65284;51.040;13.722;2024-01-15T04:55:17;17.60;;;6.53;;
76447;SDS011;65284;51.040;13.722;2024-01-15T04:57:43;16.20;;;6.03;;
76447;SDS011;65284;51.040;13.722;2024-01-15T05:00:10;18.50;;;6.65;;
76447;SDS011;65284;51.040;13.722;2024-01-15T05:02:38;17.95;;;7.35;;
76447;SDS011;65284;51.040;13.722;2024-01-15T05:05:05;14.23;;;5.63;;
76447;SDS011;65284;51.040;13.722;2024-01-15T05:07:31;15.45;;;6.43;;
76447;SDS011;65284;51.040;13.722;2024-01-15T05:09:58;14.70;;;5.82;;
76447;SDS011;65284;51.040;13.722;2024-01-15T05:12:24;16.17;;;6.32;;
76447;SDS011;65284;51.040;13.722;2024-01-15T05:14:51;16.23;;;6.50;;
76447;SDS011;65284;51.040;13.722;2024-01-15T05:17:17;17.42;;;6.35;;
76447;SDS011;65284;51.040;13.722;2024-01-15T05:19:44;19.70;;;7.25;;
76447;SDS011;65284;51.040;13.722;2024-01-15T05:22:11;17.05;;;6.18;;
76447;SDS011;65284;51.040;13.722;2024-01-15T05:24:37;17.33;;;6.50;;
76447;SDS011;65284;51.040;13.722;2024-01-15T05:27:04;15.82;;;5.93;;
76447;SDS011;65284;51.040;13.722;2024-01-15T05:29:30;18.15;;;6.53;;
76447;SDS011;65284;51.040;13.722;2024-01-15T05:31:56;15.95;;;6.68;;
76447;SDS011;65284;51.040;13.722;2024-01-15T05:34:27;14.43;;;6.18;;
76447;SDS011;65284;51.040;13.722;2024-01-15T05:36:54;16.08;;;5.85;;
76447;SDS011;65284;51.040;13.722;2024-01-15T05:39:20;17.17;;;6.35;;
76447;SDS011;65284;51.040;13.722;2024-01-15T05:41:49;15.57;;;5.97;;
76447;SDS011;65284;51.040;13.722;2024-01-15T05:44:16;16.75;;;6.75;;
76447;SDS011;65284;51.040;13.722;2024-01-15T05:46:42;15.52;;;5.57;;
76447;SDS011;65284;51.040;13.722;2024-01-15T05:49:09;14.60;;;5.75;;
76447;SDS011;65284;51.040;13.722;2024-01-15T05:51:35;18.88;;;7.28;;
76447;SDS011;65284;51.040;13.722;2024-01-15T05:54:02;13.18;;;5.10;;
76447;SDS011;65284;51.040;13.722;2024-01-15T05:56:28;18.77;;;6.70;;
76447;SDS011;65284;51.040;13.722;2024-01-15T05:58:55;16.27;;;6.07;;
76447;SDS011;65284;51.040;13.722;2024-01-15T06:01:21;16.77;;;6.03;;
76447;SDS011;65284;51.040;13.722;2024-01-15T06:03:48;16.77;;;5.93;;
76447;SDS011;65284;51.040;13.722;2024-01-15T06:06:14;15.40;;;5.75;;
76447;SDS011;65284;51.040;13.722;2024-01-15T06:08:41;14.85;;;6.00;;
76447;SDS011;65284;51.040;13.722;2024-01-15T06:11:07;12.52;;;4.88;;
76447;SDS011;65284;51.040;13.722;2024-01-15T06:13:34;15.30;;;5.47;;
76447;SDS011;65284;51.040;13.722;2024-01-15T06:16:00;12.13;;;4.43;;
76447;SDS011;65284;51.040;13.722;2024-01-15T06:18:27;15.00;;;5.50;;
76447;SDS011;65284;51.040;13.722;2024-01-15T06:20:54;16.05;;;5.68;;
76447;SDS011;65284;51.040;13.722;2024-01-15T06:23:20;12.38;;;5.45;;
76447;SDS011;65284;51.040;13.722;2024-01-15T06:25:47;15.10;;;5.20;;
76447;SDS011;65284;51.040;13.722;2024-01-15T06:28:13;17.27;;;5.43;;
76447;SDS011;65284;51.040;13.722;2024-01-15T06:30:40;13.88;;;5.53;;
76447;SDS011;65284;51.040;13.722;2024-01-15T06:33:06;13.55;;;4.85;;
76447;SDS011;65284;51.040;13.722;2024-01-15T06:35:33;13.90;;;5.15;;
76447;SDS011;65284;51.040;13.722;2024-01-15T06:38:00;13.13;;;5.10;;
76447;SDS011;65284;51.040;13.722;2024-01-15T06:40:27;14.82;;;5.07;;
76447;SDS011;65284;51.040;13.722;2024-01-15T06:42:53;13.52;;;5.32;;
76447;SDS011;65284;51.040;13.722;2024-01-15T06:45:20;12.60;;;5.50;;
76447;SDS011;65284;51.040;13.722;2024-01-15T06:47:46;15.40;;;5.45;;
76447;SDS011;65284;51.040;13.722;2024-01-15T06:50:12;12.88;;;4.93;;
76447;SDS011;65284;51.040;13.722;2024-01-15T06:52:39;12.25;;;4.28;;
76447;SDS011;65284;51.040;13.722;2024-01-15T06:55:05;11.18;;;4.88;;
76447;SDS011;65284;51.040;13.722;2024-01-15T06:57:32;12.63;;;4.38;;
76447;SDS011;65284;51.040;13.722;2024-01-15T06:59:59;14.20;;;5.35;;
76447;SDS011;65284;51.040;13.722;2024-01-15T07:02:25;13.10;;;5.03;;
76447;SDS011;65284;51.040;13.722;2024-01-15T07:04:53;12.98;;;4.85;;
76447;SDS011;65284;51.040;13.722;2024-01-15T07:07:19;11.85;;;5.22;;
76447;SDS011;65284;51.040;13.722;2024-01-15T07:09:45;14.98;;;5.30;;
76447;SDS011;65284;51.040;13.722;2024-01-15T07:12:12;13.57;;;4.97;;
76447;SDS011;65284;51.040;13.722;2024-01-15T07:14:39;12.95;;;4.90;;
76447;SDS011;65284;51.040;13.722;2024-01-15T07:17:05;10.27;;;4.20;;
76447;SDS011;65284;51.040;13.722;2024-01-15T07:19:32;13.05;;;4.97;;
76447;SDS011;65284;51.040;13.722;2024-01-15T07:21:59;13.60;;;5.28;;
76447;SDS011;65284;51.040;13.722;2024-01-15T07:24:26;9.05;;;3.92;;
76447;SDS011;65284;51.040;13.722;2024-01-15T07:26:53;11.90;;;4.63;;
76447;SDS011;65284;51.040;13.722;2024-01-15T07:29:19;13.45;;;4.20;;
76447;SDS011;65284;51.040;13.722;2024-01-15T07:31:49;14.25;;;4.60;;
76447;SDS011;65284;51.040;13.722;2024-01-15T07:34:19;12.32;;;4.75;;
76447;SDS011;65284;51.040;13.722;2024-01-15T07:36:46;13.05;;;4.90;;
76447;SDS011;65284;51.040;13.722;2024-01-15T07:39:13;10.70;;;4.35;;
76447;SDS011;65284;51.040;13.722;2024-01-15T07:41:40;11.77;;;4.30;;
76447;SDS011;65284;51.040;13.722;2024-01-15T07:44:06;11.65;;;4.30;;
76447;SDS011;65284;51.040;13.722;2024-01-15T07:46:33;12.18;;;4.82;;
76447;SDS011;65284;51.040;13.722;2024-01-15T07:48:59;13.68;;;4.95;;
76447;SDS011;65284;51.040;13.722;2024-01-15T07:51:26;13.52;;;4.50;;
76447;SDS011;65284;51.040;13.722;2024-01-15T07:53:53;13.98;;;4.75;;
76447;SDS011;65284;51.040;13.722;2024-01-15T07:56:20;12.90;;;4.95;;
76447;SDS011;65284;51.040;13.722;2024-01-15T07:58:47;10.80;;;4.65;;
76447;SDS011;65284;51.040;13.722;2024-01-15T08:01:14;12.63;;;5.18;;
76447;SDS011;65284;51.040;13.722;2024-01-15T08:03:41;12.63;;;4.70;;
76447;SDS011;65284;51.040;13.722;2024-01-15T08:06:08;11.88;;;4.57;;
76447;SDS011;65284;51.040;13.722;2024-01-15T08:08:36;13.43;;;5.03;;
76447;SDS011;65284;51.040;13.722;2024-01-15T08:11:03;11.60;;;4.78;;
76447;SDS011;65284;51.040;13.722;2024-01-15T08:13:29;14.13;;;4.85;;
76447;SDS011;65284;51.040;13.722;2024-01-15T08:15:56;14.68;;;4.90;;
76447;SDS011;65284;51.040;13.722;2024-01-15T08:18:23;13.45;;;4.50;;
76447;SDS011;65284;51.040;13.722;2024-01-15T08:20:50;11.98;;;4.88;;
76447;SDS011;65284;51.040;13.722;2024-01-15T08:23:17;12.88;;;4.47;;
76447;SDS011;65284;51.040;13.722;2024-01-15T08:25:44;14.63;;;5.20;;
76447;SDS011;65284;51.040;13.722;2024-01-15T08:28:10;13.68;;;5.05;;
76447;SDS011;65284;51.040;13.722;2024-01-15T08:30:37;12.07;;;4.50;;
76447;SDS011;65284;51.040;13.722;2024-01-15T08:33:04;12.20;;;4.70;;
76447;SDS011;65284;51.040;13.722;2024-01-15T08:35:43;11.07;;;4.18;;
76447;SDS011;65284;51.040;13.722;2024-01-15T08:38:10;13.02;;;4.60;;
76447;SDS011;65284;51.040;13.722;2024-01-15T08:40:36;11.98;;;4.30;;
76447;SDS011;65284;51.040;13.722;2024-01-15T08:43:02;11.85;;;4.30;;
76447;SDS011;65284;51.040;13.722;2024-01-15T08:45:29;13.35;;;4.60;;
76447;SDS011;65284;51.040;13.722;2024-01-15T08:47:57;11.50;;;4.07;;
76447;SDS011;65284;51.040;13.722;2024-01-15T08:50:33;9.73;;;3.85;;
76447;SDS011;65284;51.040;13.722;2024-01-15T08:53:01;11.25;;;3.75;;
76447;SDS011;65284;51.040;13.722;2024-01-15T08:55:27;11.27;;;3.80;;
76447;SDS011;65284;51.040;13.722;2024-01-15T08:57:54;10.73;;;3.92;;
76447;SDS011;65284;51.040;13.722;2024-01-15T09:00:20;13.32;;;4.22;;
76447;SDS011;65284;51.040;13.722;2024-01-15T09:02:47;12.95;;;4.43;;
76447;SDS011;65284;51.040;13.722;2024-01-15T09:05:13;9.93;;;3.95;;
76447;SDS011;65284;51.040;13.722;2024-01-15T09:07:40;10.20;;;3.83;;
76447;SDS011;65284;51.040;13.722;2024-01-15T09:10:07;11.10;;;4.05;;
76447;SDS011;65284;51.040;13.722;2024-01-15T09:12:33;9.70;;;3.70;;
76447;SDS011;65284;51.040;13.722;2024-01-15T09:15:00;9.50;;;4.03;;
76447;SDS011;65284;51.040;13.722;2024-01-15T09:17:26;8.60;;;3.30;;
76447;SDS011;65284;51.040;13.722;2024-01-15T09:19:54;11.07;;;3.97;;
76447;SDS011;65284;51.040;13.722;2024-01-15T09:22:21;8.85;;;3.38;;
76447;SDS011;65284;51.040;13.722;2024-01-15T09:24:47;8.65;;;3.50;;
76447;SDS011;65284;51.040;13.722;2024-01-15T09:27:14;8.65;;;3.28;;
76447;SDS011;65284;51.040;13.722;2024-01-15T09:29:41;11.35;;;3.80;;
76447;SDS011;65284;51.040;13.722;2024-01-15T09:32:09;9.25;;;3.35;;
76447;SDS011;65284;51.040;13.722;2024-01-15T09:34:35;8.32;;;3.33;;
76447;SDS011;65284;51.040;13.722;2024-01-15T09:37:02;9.57;;;3.20;;
76447;SDS011;65284;51.040;13.722;2024-01-15T09:39:31;9.70;;;3.67;;
76447;SDS011;65284;51.040;13.722;2024-01-15T09:41:58;8.35;;;3.35;;
76447;SDS011;65284;51.040;13.722;2024-01-15T09:44:25;11.07;;;3.53;;
76447;SDS011;65284;51.040;13.722;2024-01-15T09:46:52;8.60;;;3.45;;
76447;SDS011;65284;51.040;13.722;2024-01-15T09:49:19;11.88;;;3.50;;
76447;SDS011;65284;51.040;13.722;2024-01-15T09:51:46;12.27;;;4.38;;
76447;SDS011;65284;51.040;13.722;2024-01-15T09:54:28;10.00;;;3.75;;
76447;SDS011;65284;51.040;13.722;2024-01-15T09:56:54;15.27;;;3.78;;
76447;SDS011;65284;51.040;13.722;2024-01-15T09:59:22;8.40;;;3.53;;
76447;SDS011;65284;51.040;13.722;2024-01-15T10:01:48;9.88;;;3.17;;
76447;SDS011;65284;51.040;13.722;2024-01-15T10:04:16;8.73;;;3.10;;
76447;SDS011;65284;51.040;13.722;2024-01-15T10:06:44;8.23;;;3.28;;
76447;SDS011;65284;51.040;13.722;2024-01-15T10:09:12;10.55;;;3.70;;
76447;SDS011;65284;51.040;13.722;2024-01-15T10:11:41;8.85;;;3.20;;
76447;SDS011;65284;51.040;13.722;2024-01-15T10:14:09;8.10;;;3.38;;
76447;SDS011;65284;51.040;13.722;2024-01-15T10:19:08;9.35;;;2.80;;
76447;SDS011;65284;51.040;13.722;2024-01-15T10:21:35;9.38;;;3.40;;
76447;SDS011;65284;51.040;13.722;2024-01-15T10:24:02;10.07;;;3.33;;
76447;SDS011;65284;51.040;13.722;2024-01-15T10:26:30;8.63;;;2.80;;
76447;SDS011;65284;51.040;13.722;2024-01-15T10:29:00;7.22;;;2.83;;
76447;SDS011;65284;51.040;13.722;2024-01-15T10:31:27;8.95;;;3.30;;
76447;SDS011;65284;51.040;13.722;2024-01-15T10:34:09;8.80;;;3.28;;
76447;SDS011;65284;51.040;13.722;2024-01-15T10:36:38;9.20;;;3.03;;
76447;SDS011;65284;51.040;13.722;2024-01-15T10:39:06;8.25;;;3.00;;
76447;SDS011;65284;51.040;13.722;2024-01-15T10:41:33;9.13;;;3.15;;
76447;SDS011;65284;51.040;13.722;2024-01-15T10:44:00;10.40;;;3.10;;
76447;SDS011;65284;51.040;13.722;2024-01-15T10:46:26;8.52;;;3.30;;
76447;SDS011;65284;51.040;13.722;2024-01-15T10:48:53;9.88;;;3.78;;
76447;SDS011;65284;51.040;13.722;2024-01-15T10:51:21;9.88;;;3.67;;
76447;SDS011;65284;51.040;13.722;2024-01-15T10:53:47;7.15;;;3.08;;
76447;SDS011;65284;51.040;13.722;2024-01-15T10:56:14;8.50;;;3.25;;
76447;SDS011;65284;51.040;13.722;2024-01-15T10:58:41;9.25;;;3.40;;
76447;SDS011;65284;51.040;13.722;2024-01-15T11:01:09;9.18;;;2.97;;
76447;SDS011;65284;51.040;13.722;2024-01-15T11:03:35;10.40;;;3.53;;
76447;SDS011;65284;51.040;13.722;2024-01-15T11:06:03;8.60;;;2.95;;
76447;SDS011;65284;51.040;13.722;2024-01-15T11:08:30;8.40;;;2.72;;
76447;SDS011;65284;51.040;13.722;2024-01-15T11:10:57;8.00;;;2.80;;
76447;SDS011;65284;51.040;13.722;2024-01-15T11:18:31;9.00;;;3.00;;
76447;SDS011;65284;51.040;13.722;2024-01-15T11:23:46;9.18;;;3.17;;
76447;SDS011;65284;51.040;13.722;2024-01-15T11:29:08;13.82;;;3.85;;
76447;SDS011;65284;51.040;13.722;2024-01-15T11:34:03;9.35;;;3.40;;
76447;SDS011;65284;51.040;13.722;2024-01-15T11:37:00;10.60;;;3.50;;
76447;SDS011;65284;51.040;13.722;2024-01-15T11:41:54;8.65;;;3.25;;
76447;SDS011;65284;51.040;13.722;2024-01-15T11:44:22;10.40;;;3.28;;
76447;SDS011;65284;51.040;13.722;2024-01-15T11:46:54;8.02;;;3.35;;
76447;SDS011;65284;51.040;13.722;2024-01-15T11:52:11;10.30;;;3.20;;
76447;SDS011;65284;51.040;13.722;2024-01-15T11:54:38;9.27;;;3.20;;
76447;SDS011;65284;51.040;13.722;2024-01-15T11:57:08;8.40;;;3.05;;
76447;SDS011;65284;51.040;13.722;2024-01-15T11:59:42;9.02;;;3.05;;
76447;SDS011;65284;51.040;13.722;2024-01-15T12:02:09;7.15;;;2.78;;
76447;SDS011;65284;51.040;13.722;2024-01-15T12:04:37;10.18;;;3.35;;
76447;SDS011;65284;51.040;13.722;2024-01-15T12:07:05;9.05;;;3.30;;
76447;SDS011;65284;51.040;13.722;2024-01-15T12:09:32;9.30;;;2.85;;
76447;SDS011;65284;51.040;13.722;2024-01-15T12:12:02;11.05;;;3.95;;
76447;SDS011;65284;51.040;13.722;2024-01-15T12:14:33;8.90;;;3.30;;
76447;SDS011;65284;51.040;13.722;2024-01-15T12:17:02;9.30;;;3.30;;
76447;SDS011;65284;51.040;13.722;2024-01-15T12:19:31;10.50;;;3.15;;
76447;SDS011;65284;51.040;13.722;2024-01-15T12:21:58;9.88;;;3.40;;
76447;SDS011;65284;51.040;13.722;2024-01-15T12:24:24;9.90;;;3.15;;
76447;SDS011;65284;51.040;13.722;2024-01-15T12:26:51;9.50;;;3.92;;
76447;SDS011;65284;51.040;13.722;2024-01-15T12:29:17;9.00;;;3.40;;
76447;SDS011;65284;51.040;13.722;2024-01-15T12:31:46;8.00;;;3.40;;
76447;SDS011;65284;51.040;13.722;2024-01-15T12:34:14;7.97;;;3.00;;
76447;SDS011;65284;51.040;13.722;2024-01-15T12:36:41;8.88;;;3.58;;
76447;SDS011;65284;51.040;13.722;2024-01-15T12:39:11;8.65;;;3.63;;
76447;SDS011;65284;51.040;13.722;2024-01-15T12:41:38;10.07;;;3.60;;
76447;SDS011;65284;51.040;13.722;2024-01-15T12:44:05;10.85;;;3.90;;
76447;SDS011;65284;51.040;13.722;2024-01-15T12:46:32;11.00;;;3.63;;
76447;SDS011;65284;51.040;13.722;2024-01-15T12:48:58;10.43;;;3.25;;
76447;SDS011;65284;51.040;13.722;2024-01-15T12:51:25;11.40;;;3.90;;
76447;SDS011;65284;51.040;13.722;2024-01-15T12:53:53;10.85;;;3.85;;
76447;SDS011;65284;51.040;13.722;2024-01-15T12:56:19;11.63;;;3.95;;
76447;SDS011;65284;51.040;13.722;2024-01-15T12:58:46;9.55;;;3.28;;
76447;SDS011;65284;51.040;13.722;2024-01-15T13:01:13;11.23;;;3.95;;
76447;SDS011;65284;51.040;13.722;2024-01-15T13:03:39;9.00;;;3.70;;
76447;SDS011;65284;51.040;13.722;2024-01-15T13:06:06;10.43;;;3.97;;
76447;SDS011;65284;51.040;13.722;2024-01-15T13:08:33;11.35;;;3.95;;
76447;SDS011;65284;51.040;13.722;2024-01-15T13:11:00;10.98;;;3.70;;
76447;SDS011;65284;51.040;13.722;2024-01-15T13:13:26;8.65;;;3.60;;
76447;SDS011;65284;51.040;13.722;2024-01-15T13:15:53;9.23;;;4.05;;
76447;SDS011;65284;51.040;13.722;2024-01-15T13:18:20;10.10;;;3.83;;
76447;SDS011;65284;51.040;13.722;2024-01-15T13:20:46;8.25;;;3.35;;
76447;SDS011;65284;51.040;13.722;2024-01-15T13:23:13;10.38;;;3.95;;
76447;SDS011;65284;51.040;13.722;2024-01-15T13:25:39;8.60;;;3.45;;
76447;SDS011;65284;51.040;13.722;2024-01-15T13:28:06;13.00;;;4.82;;
76447;SDS011;65284;51.040;13.722;2024-01-15T13:30:33;10.63;;;3.65;;
76447;SDS011;65284;51.040;13.722;2024-01-15T13:32:59;8.70;;;3.28;;
76447;SDS011;65284;51.040;13.722;2024-01-15T13:35:30;13.57;;;4.00;;
76447;SDS011;65284;51.040;13.722;2024-01-15T13:37:58;9.55;;;3.70;;
76447;SDS011;65284;51.040;13.722;2024-01-15T13:40:24;10.38;;;4.20;;
76447;SDS011;65284;51.040;13.722;2024-01-15T13:42:51;10.15;;;3.90;;
76447;SDS011;65284;51.040;13.722;2024-01-15T13:45:19;8.57;;;3.67;;
76447;SDS011;65284;51.040;13.722;2024-01-15T13:47:46;12.15;;;4.43;;
76447;SDS011;65284;51.040;13.722;2024-01-15T13:50:13;11.18;;;3.95;;
76447;SDS011;65284;51.040;13.722;2024-01-15T13:52:40;11.32;;;4.15;;
76447;SDS011;65284;51.040;13.722;2024-01-15T13:55:06;12.43;;;4.63;;
76447;SDS011;65284;51.040;13.722;2024-01-15T13:57:35;12.13;;;4.53;;
76447;SDS011;65284;51.040;13.722;2024-01-15T14:00:02;11.02;;;4.32;;
76447;SDS011;65284;51.040;13.722;2024-01-15T14:02:35;11.38;;;4.40;;
76447;SDS011;65284;51.040;13.722;2024-01-15T14:05:02;11.10;;;4.22;;
76447;SDS011;65284;51.040;13.722;2024-01-15T14:07:28;13.05;;;4.57;;
76447;SDS011;65284;51.040;13.722;2024-01-15T14:09:54;12.02;;;4.57;;
76447;SDS011;65284;51.040;13.722;2024-01-15T14:12:21;9.35;;;4.15;;
76447;SDS011;65284;51.040;13.722;2024-01-15T14:14:47;13.43;;;5.18;;
76447;SDS011;65284;51.040;13.722;2024-01-15T14:17:14;10.90;;;4.53;;
76447;SDS011;65284;51.040;13.722;2024-01-15T14:19:40;12.70;;;4.35;;
76447;SDS011;65284;51.040;13.722;2024-01-15T14:22:07;10.10;;;4.43;;
76447;SDS011;65284;51.040;13.722;2024-01-15T14:24:34;13.57;;;5.00;;
76447;SDS011;65284;51.040;13.722;2024-01-15T14:27:00;13.15;;;4.72;;
76447;SDS011;65284;51.040;13.722;2024-01-15T14:29:27;9.48;;;3.90;;
76447;SDS011;65284;51.040;13.722;2024-01-15T14:31:53;11.88;;;4.50;;
76447;SDS011;65284;51.040;13.722;2024-01-15T14:34:20;12.93;;;4.45;;
76447;SDS011;65284;51.040;13.722;2024-01-15T14:36:49;12.18;;;4.30;;
76447;SDS011;65284;51.040;13.722;2024-01-15T14:39:16;12.02;;;4.68;;
76447;SDS011;65284;51.040;13.722;2024-01-15T14:41:43;13.23;;;4.63;;
76447;SDS011;65284;51.040;13.722;2024-01-15T14:44:09;14.93;;;5.00;;